sensor_id;sensor_type;location;lat;lon;timestamp;pressure;altitude;pressure_sealevel;temperature;humidity
64064;BME280;50314;50.618;10.642;2023-08-20T00:00:16;97126.00;;;24.88;35.03
64064;BME280;50314;50.618;10.642;2023-08-20T00:02:43;97124.78;;;24.91;34.84
64064;BME280;50314;50.618;10.642;2023-08-20T00:05:11;97131.22;;;24.90;35.03
64064;BME280;50314;50.618;10.642;2023-08-20T00:07:36;97126.00;;;24.88;34.88
64064;BME280;50314;50.618;10.642;2023-08-20T00:10:02;97119.34;;;24.84;35.17
64064;BME280;50314;50.618;10.642;2023-08-20T00:12:30;97129.28;;;24.83;35.05
64064;BME280;50314;50.618;10.642;2023-08-20T00:14:57;97126.81;;;24.82;35.07
64064;BME280;50314;50.618;10.642;2023-08-20T00:20:13;97128.03;;;24.79;35.31
64064;BME280;50314;50.618;10.642;2023-08-20T00:22:40;97130.28;;;24.76;35.24
64064;BME280;50314;50.618;10.642;2023-08-20T00:25:08;97137.53;;;24.75;35.17
64064;BME280;50314;50.618;10.642;2023-08-20T00:27:33;97134.19;;;24.73;35.29
64064;BME280;50314;50.618;10.642;2023-08-20T00:29:59;97135.84;;;24.74;35.24
64064;BME280;50314;50.618;10.642;2023-08-20T00:32:24;97137.53;;;24.75;35.16
64064;BME280;50314;50.618;10.642;2023-08-20T00:34:50;97132.53;;;24.72;35.22
64064;BME280;50314;50.618;10.642;2023-08-20T00:37:15;97135.84;;;24.74;35.17
64064;BME280;50314;50.618;10.642;2023-08-20T00:39:41;97142.47;;;24.72;34.97
64064;BME280;50314;50.618;10.642;2023-08-20T00:42:07;97138.91;;;24.71;35.22
64064;BME280;50314;50.618;10.642;2023-08-20T00:44:33;97140.16;;;24.69;35.34
64064;BME280;50314;50.618;10.642;2023-08-20T00:47:00;97142.00;;;24.68;35.23
64064;BME280;50314;50.618;10.642;2023-08-20T00:49:26;97141.16;;;24.68;35.39
64064;BME280;50314;50.618;10.642;2023-08-20T00:51:52;97141.38;;;24.66;35.14
64064;BME280;50314;50.618;10.642;2023-08-20T00:54:18;97141.75;;;24.63;35.57
64064;BME280;50314;50.618;10.642;2023-08-20T00:56:44;97140.16;;;24.69;35.25
64064;BME280;50314;50.618;10.642;2023-08-20T00:59:10;97131.41;;;24.67;35.25
64064;BME280;50314;50.618;10.642;2023-08-20T01:01:36;97133.28;;;24.66;35.38
64064;BME280;50314;50.618;10.642;2023-08-20T01:04:01;97132.63;;;24.64;35.31
64064;BME280;50314;50.618;10.642;2023-08-20T01:09:12;97130.72;;;24.58;35.73
64064;BME280;50314;50.618;10.642;2023-08-20T01:11:45;97127.38;;;24.56;35.51
64064;BME280;50314;50.618;10.642;2023-08-20T01:14:16;97129.03;;;24.57;35.40
64064;BME280;50314;50.618;10.642;2023-08-20T01:16:43;97123.66;;;24.57;35.54
64064;BME280;50314;50.618;10.642;2023-08-20T01:19:10;97131.50;;;24.52;35.48
64064;BME280;50314;50.618;10.642;2023-08-20T01:21:39;97128.44;;;24.55;35.21
64064;BME280;50314;50.618;10.642;2023-08-20T01:26:51;97134.25;;;24.44;35.55
64064;BME280;50314;50.618;10.642;2023-08-20T01:29:20;97134.72;;;24.47;35.29
64064;BME280;50314;50.618;10.642;2023-08-20T01:31:46;97136.44;;;24.48;35.29
64064;BME280;50314;50.618;10.642;2023-08-20T01:34:12;97139.75;;;24.50;35.20
64064;BME280;50314;50.618;10.642;2023-08-20T01:36:38;97131.06;;;24.48;35.22
64064;BME280;50314;50.618;10.642;2023-08-20T01:39:04;97140.47;;;24.44;35.03
64064;BME280;50314;50.618;10.642;2023-08-20T01:41:30;97138.00;;;24.43;35.13
64064;BME280;50314;50.618;10.642;2023-08-20T01:43:56;97141.72;;;24.42;35.04
64064;BME280;50314;50.618;10.642;2023-08-20T01:46:21;97145.41;;;24.41;35.07
64064;BME280;50314;50.618;10.642;2023-08-20T01:48:47;97141.28;;;24.38;35.12
64064;BME280;50314;50.618;10.642;2023-08-20T01:51:12;97135.22;;;24.36;34.91
64064;BME280;50314;50.618;10.642;2023-08-20T01:53:38;97144.50;;;24.33;35.07
64064;BME280;50314;50.618;10.642;2023-08-20T01:56:03;97141.81;;;24.33;34.59
64064;BME280;50314;50.618;10.642;2023-08-20T01:58:29;97140.16;;;24.32;34.94
64064;BME280;50314;50.618;10.642;2023-08-20T02:00:55;97143.59;;;24.26;35.25
64064;BME280;50314;50.618;10.642;2023-08-20T02:03:21;97150.28;;;24.30;34.84
64064;BME280;50314;50.618;10.642;2023-08-20T02:05:46;97141.38;;;24.30;34.79
64064;BME280;50314;50.618;10.642;2023-08-20T02:08:12;97151.50;;;24.28;34.89
64064;BME280;50314;50.618;10.642;2023-08-20T02:10:37;97150.66;;;24.27;34.84
64064;BME280;50314;50.618;10.642;2023-08-20T02:13:03;97152.72;;;24.25;34.74
64064;BME280;50314;50.618;10.642;2023-08-20T02:15:29;97149.38;;;24.23;34.91
64064;BME280;50314;50.618;10.642;2023-08-20T02:17:56;97155.94;;;24.21;34.32
64064;BME280;50314;50.618;10.642;2023-08-20T02:20:21;97154.50;;;24.18;34.43
64064;BME280;50314;50.618;10.642;2023-08-20T02:22:48;97151.34;;;24.14;34.88
64064;BME280;50314;50.618;10.642;2023-08-20T02:25:13;97161.47;;;24.12;34.51
64064;BME280;50314;50.618;10.642;2023-08-20T02:27:39;97157.94;;;24.12;34.80
64064;BME280;50314;50.618;10.642;2023-08-20T02:30:05;97157.28;;;24.10;34.62
64064;BME280;50314;50.618;10.642;2023-08-20T02:32:30;97162.88;;;24.08;34.61
64064;BME280;50314;50.618;10.642;2023-08-20T02:34:58;97162.03;;;24.08;34.83
64064;BME280;50314;50.618;10.642;2023-08-20T02:37:24;97163.03;;;24.07;34.68
64064;BME280;50314;50.618;10.642;2023-08-20T02:39:49;97159.72;;;24.05;34.66
64064;BME280;50314;50.618;10.642;2023-08-20T02:42:15;97151.00;;;24.03;34.41
64064;BME280;50314;50.618;10.642;2023-08-20T02:44:40;97161.09;;;24.01;34.65
64064;BME280;50314;50.618;10.642;2023-08-20T02:47:06;97164.81;;;24.00;34.24
64064;BME280;50314;50.618;10.642;2023-08-20T02:49:31;97166.88;;;23.98;34.53
64064;BME280;50314;50.618;10.642;2023-08-20T02:51:57;97174.94;;;23.98;34.53
64064;BME280;50314;50.618;10.642;2023-08-20T02:54:22;97170.56;;;23.97;34.68
64064;BME280;50314;50.618;10.642;2023-08-20T02:56:48;97169.06;;;23.94;34.56
64064;BME280;50314;50.618;10.642;2023-08-20T02:59:13;97170.28;;;23.91;34.79
64064;BME280;50314;50.618;10.642;2023-08-20T03:01:39;97166.75;;;23.91;34.73
64064;BME280;50314;50.618;10.642;2023-08-20T03:04:05;97168.59;;;23.90;34.43
64064;BME280;50314;50.618;10.642;2023-08-20T03:06:30;97170.44;;;23.90;34.89
64064;BME280;50314;50.618;10.642;2023-08-20T03:08:56;97170.66;;;23.88;34.79
64064;BME280;50314;50.618;10.642;2023-08-20T03:11:21;97170.19;;;23.85;34.79
64064;BME280;50314;50.618;10.642;2023-08-20T03:13:47;97162.28;;;23.83;34.52
64064;BME280;50314;50.618;10.642;2023-08-20T03:16:12;97163.31;;;23.82;34.79
64064;BME280;50314;50.618;10.642;2023-08-20T03:18:38;97166.00;;;23.82;35.10
64064;BME280;50314;50.618;10.642;2023-08-20T03:21:03;97163.69;;;23.79;34.74
64064;BME280;50314;50.618;10.642;2023-08-20T03:23:29;97161.19;;;23.78;34.91
64064;BME280;50314;50.618;10.642;2023-08-20T03:25:57;97165.09;;;23.75;34.81
64064;BME280;50314;50.618;10.642;2023-08-20T03:28:23;97161.38;;;23.76;34.57
64064;BME280;50314;50.618;10.642;2023-08-20T03:30:49;97162.41;;;23.75;34.83
64064;BME280;50314;50.618;10.642;2023-08-20T03:33:17;97165.75;;;23.77;34.48
64064;BME280;50314;50.618;10.642;2023-08-20T03:35:43;97165.75;;;23.77;34.87
64064;BME280;50314;50.618;10.642;2023-08-20T03:38:09;97168.59;;;23.76;34.65
64064;BME280;50314;50.618;10.642;2023-08-20T03:40:34;97162.03;;;23.78;34.13
64064;BME280;50314;50.618;10.642;2023-08-20T03:43:00;97168.59;;;23.76;34.09
64064;BME280;50314;50.618;10.642;2023-08-20T03:45:26;97172.13;;;23.76;34.61
64064;BME280;50314;50.618;10.642;2023-08-20T03:47:51;97167.78;;;23.75;34.08
64064;BME280;50314;50.618;10.642;2023-08-20T03:50:17;97169.44;;;23.76;34.32
64064;BME280;50314;50.618;10.642;2023-08-20T03:52:42;97167.13;;;23.73;34.04
64064;BME280;50314;50.618;10.642;2023-08-20T03:55:08;97161.47;;;23.68;34.21
64064;BME280;50314;50.618;10.642;2023-08-20T03:57:33;97167.03;;;23.66;34.30
64064;BME280;50314;50.618;10.642;2023-08-20T03:59:59;97165.56;;;23.64;34.24
64064;BME280;50314;50.618;10.642;2023-08-20T04:02:24;97169.25;;;23.63;34.54
64064;BME280;50314;50.618;10.642;2023-08-20T04:04:50;97166.56;;;23.63;34.20
64064;BME280;50314;50.618;10.642;2023-08-20T04:07:17;97166.94;;;23.60;34.61
64064;BME280;50314;50.618;10.642;2023-08-20T04:09:43;97160.72;;;23.59;34.40
64064;BME280;50314;50.618;10.642;2023-08-20T04:12:08;97161.75;;;23.58;34.12
64064;BME280;50314;50.618;10.642;2023-08-20T04:14:34;97162.78;;;23.57;34.66
64064;BME280;50314;50.618;10.642;2023-08-20T04:16:59;97160.09;;;23.57;34.60
64064;BME280;50314;50.618;10.642;2023-08-20T04:19:25;97153.03;;;23.56;34.35
64064;BME280;50314;50.618;10.642;2023-08-20T04:21:50;97156.28;;;23.52;34.36
64064;BME280;50314;50.618;10.642;2023-08-20T04:24:16;97157.09;;;23.52;34.66
64064;BME280;50314;50.618;10.642;2023-08-20T04:26:42;97160.00;;;23.51;34.19
64064;BME280;50314;50.618;10.642;2023-08-20T04:29:09;97162.03;;;23.49;34.09
64064;BME280;50314;50.618;10.642;2023-08-20T04:31:34;97162.22;;;23.47;34.30
64064;BME280;50314;50.618;10.642;2023-08-20T04:34:00;97165.28;;;23.44;34.33
64064;BME280;50314;50.618;10.642;2023-08-20T04:36:25;97168.59;;;23.46;34.40
64064;BME280;50314;50.618;10.642;2023-08-20T04:38:51;97163.06;;;23.48;34.07
64064;BME280;50314;50.618;10.642;2023-08-20T04:41:16;97170.28;;;23.47;34.56
64064;BME280;50314;50.618;10.642;2023-08-20T04:43:42;97179.34;;;23.46;34.36
64064;BME280;50314;50.618;10.642;2023-08-20T04:46:07;97173.34;;;23.44;34.56
64064;BME280;50314;50.618;10.642;2023-08-20T04:48:33;97167.31;;;23.42;34.12
64064;BME280;50314;50.618;10.642;2023-08-20T04:50:58;97169.50;;;23.38;34.17
64064;BME280;50314;50.618;10.642;2023-08-20T04:53:25;97166.81;;;23.38;34.20
64064;BME280;50314;50.618;10.642;2023-08-20T04:55:51;97173.19;;;23.37;34.38
64064;BME280;50314;50.618;10.642;2023-08-20T04:58:16;97171.34;;;23.38;34.37
64064;BME280;50314;50.618;10.642;2023-08-20T05:00:42;97175.91;;;23.37;34.24
64064;BME280;50314;50.618;10.642;2023-08-20T05:03:08;97173.19;;;23.37;34.43
64064;BME280;50314;50.618;10.642;2023-08-20T05:05:33;97171.50;;;23.36;34.07
64064;BME280;50314;50.618;10.642;2023-08-20T05:07:59;97175.91;;;23.37;34.59
64064;BME280;50314;50.618;10.642;2023-08-20T05:10:24;97181.25;;;23.37;34.26
64064;BME280;50314;50.618;10.642;2023-08-20T05:12:50;97178.59;;;23.37;34.02
64064;BME280;50314;50.618;10.642;2023-08-20T05:15:15;97183.97;;;23.37;34.06
64064;BME280;50314;50.618;10.642;2023-08-20T05:17:41;97190.31;;;23.36;34.30
64064;BME280;50314;50.618;10.642;2023-08-20T05:20:07;97187.00;;;23.34;34.47
64064;BME280;50314;50.618;10.642;2023-08-20T05:22:34;97194.03;;;23.35;34.49
64064;BME280;50314;50.618;10.642;2023-08-20T05:24:59;97190.16;;;23.38;34.54
64064;BME280;50314;50.618;10.642;2023-08-20T05:27:25;97183.75;;;23.39;34.15
64064;BME280;50314;50.618;10.642;2023-08-20T05:29:50;97186.13;;;23.42;34.85
64064;BME280;50314;50.618;10.642;2023-08-20T05:32:15;97183.88;;;23.45;34.51
64064;BME280;50314;50.618;10.642;2023-08-20T05:34:41;97185.19;;;23.50;34.24
64064;BME280;50314;50.618;10.642;2023-08-20T05:37:07;97179.81;;;23.50;34.30
64064;BME280;50314;50.618;10.642;2023-08-20T05:39:43;97180.19;;;23.47;34.63
64064;BME280;50314;50.618;10.642;2023-08-20T05:42:09;97184.81;;;23.53;34.46
64064;BME280;50314;50.618;10.642;2023-08-20T05:44:34;97182.13;;;23.53;34.39
64064;BME280;50314;50.618;10.642;2023-08-20T05:47:00;97181.31;;;23.52;34.87
64064;BME280;50314;50.618;10.642;2023-08-20T05:49:26;97195.56;;;23.53;34.84
64064;BME280;50314;50.618;10.642;2023-08-20T05:51:52;97196.59;;;23.52;34.73
64064;BME280;50314;50.618;10.642;2023-08-20T05:54:18;97206.31;;;23.53;34.83
64064;BME280;50314;50.618;10.642;2023-08-20T05:56:43;97212.72;;;23.52;34.92
64064;BME280;50314;50.618;10.642;2023-08-20T05:59:09;97214.59;;;23.51;35.35
64064;BME280;50314;50.618;10.642;2023-08-20T06:01:34;97211.06;;;23.51;35.43
64064;BME280;50314;50.618;10.642;2023-08-20T06:04:00;97215.41;;;23.52;35.10
64064;BME280;50314;50.618;10.642;2023-08-20T06:06:26;97217.09;;;23.53;35.64
64064;BME280;50314;50.618;10.642;2023-08-20T06:08:52;97217.75;;;23.55;35.45
64064;BME280;50314;50.618;10.642;2023-08-20T06:11:19;97225.44;;;23.58;35.53
64064;BME280;50314;50.618;10.642;2023-08-20T06:13:44;97225.09;;;23.61;36.04
64064;BME280;50314;50.618;10.642;2023-08-20T06:16:10;97224.72;;;23.64;36.11
64064;BME280;50314;50.618;10.642;2023-08-20T06:18:35;97230.56;;;23.67;36.30
64064;BME280;50314;50.618;10.642;2023-08-20T06:21:02;97228.34;;;23.71;36.01
64064;BME280;50314;50.618;10.642;2023-08-20T06:23:28;97236.88;;;23.75;35.87
64064;BME280;50314;50.618;10.642;2023-08-20T06:25:53;97232.78;;;23.79;36.45
64064;BME280;50314;50.618;10.642;2023-08-20T06:28:19;97227.03;;;23.82;36.07
64064;BME280;50314;50.618;10.642;2023-08-20T06:30:45;97234.53;;;23.86;36.81
64064;BME280;50314;50.618;10.642;2023-08-20T06:33:11;97230.44;;;23.90;36.62
64064;BME280;50314;50.618;10.642;2023-08-20T06:35:37;97225.56;;;23.94;36.67
64064;BME280;50314;50.618;10.642;2023-08-20T06:38:03;97220.69;;;23.98;36.71
64064;BME280;50314;50.618;10.642;2023-08-20T06:40:28;97223.81;;;24.01;36.85
64064;BME280;50314;50.618;10.642;2023-08-20T06:42:54;97227.16;;;24.03;36.65
64064;BME280;50314;50.618;10.642;2023-08-20T06:45:20;97226.59;;;24.08;36.88
64064;BME280;50314;50.618;10.642;2023-08-20T06:47:45;97227.91;;;24.12;36.75
64064;BME280;50314;50.618;10.642;2023-08-20T06:50:11;97230.00;;;24.17;36.51
64064;BME280;50314;50.618;10.642;2023-08-20T06:52:37;97227.41;;;24.23;36.85
64064;BME280;50314;50.618;10.642;2023-08-20T06:55:03;97224.63;;;24.31;36.56
64064;BME280;50314;50.618;10.642;2023-08-20T06:57:29;97227.84;;;24.42;36.23
64064;BME280;50314;50.618;10.642;2023-08-20T06:59:54;97227.97;;;24.48;35.88
64064;BME280;50314;50.618;10.642;2023-08-20T07:02:20;97222.47;;;24.56;36.04
64064;BME280;50314;50.618;10.642;2023-08-20T07:04:45;97228.56;;;24.65;35.82
64064;BME280;50314;50.618;10.642;2023-08-20T07:07:12;97234.88;;;24.72;35.62
64064;BME280;50314;50.618;10.642;2023-08-20T07:09:37;97230.38;;;24.79;35.45
64064;BME280;50314;50.618;10.642;2023-08-20T07:14:50;97245.84;;;24.92;35.50
64064;BME280;50314;50.618;10.642;2023-08-20T07:17:16;97247.31;;;24.95;35.30
64064;BME280;50314;50.618;10.642;2023-08-20T07:19:41;97246.75;;;24.99;35.26
64064;BME280;50314;50.618;10.642;2023-08-20T07:22:07;97253.63;;;25.02;35.20
64064;BME280;50314;50.618;10.642;2023-08-20T07:24:32;97259.47;;;25.05;35.41
64064;BME280;50314;50.618;10.642;2023-08-20T07:27:01;97257.41;;;25.07;35.01
64064;BME280;50314;50.618;10.642;2023-08-20T07:29:27;97260.56;;;25.11;35.18
64064;BME280;50314;50.618;10.642;2023-08-20T07:31:56;97267.81;;;25.11;34.84
64064;BME280;50314;50.618;10.642;2023-08-20T07:34:22;97265.94;;;25.11;34.83
64064;BME280;50314;50.618;10.642;2023-08-20T07:36:48;97267.81;;;25.11;34.67
64064;BME280;50314;50.618;10.642;2023-08-20T07:39:13;97274.69;;;25.13;35.02
64064;BME280;50314;50.618;10.642;2023-08-20T07:41:40;97279.69;;;25.16;34.84
64064;BME280;50314;50.618;10.642;2023-08-20T07:44:05;97285.69;;;25.18;35.10
64064;BME280;50314;50.618;10.642;2023-08-20T07:46:31;97283.84;;;25.19;34.69
64064;BME280;50314;50.618;10.642;2023-08-20T07:48:56;97283.84;;;25.19;34.81
64064;BME280;50314;50.618;10.642;2023-08-20T07:51:22;97285.53;;;25.20;34.84
64064;BME280;50314;50.618;10.642;2023-08-20T07:53:47;97287.63;;;25.24;34.93
64064;BME280;50314;50.618;10.642;2023-08-20T07:56:13;97287.47;;;25.26;34.92
64064;BME280;50314;50.618;10.642;2023-08-20T07:58:38;97288.91;;;25.28;34.70
64064;BME280;50314;50.618;10.642;2023-08-20T08:01:04;97282.31;;;25.31;34.70
64064;BME280;50314;50.618;10.642;2023-08-20T08:03:30;97283.13;;;25.31;34.83
64064;BME280;50314;50.618;10.642;2023-08-20T08:05:55;97280.06;;;25.35;34.78
64064;BME280;50314;50.618;10.642;2023-08-20T08:08:21;97286.09;;;25.37;34.76
64064;BME280;50314;50.618;10.642;2023-08-20T08:10:47;97285.72;;;25.40;34.80
64064;BME280;50314;50.618;10.642;2023-08-20T08:13:14;97286.34;;;25.42;34.87
64064;BME280;50314;50.618;10.642;2023-08-20T08:15:40;97287.81;;;25.44;34.56
64064;BME280;50314;50.618;10.642;2023-08-20T08:18:07;97285.56;;;25.48;34.67
64064;BME280;50314;50.618;10.642;2023-08-20T08:20:33;97276.25;;;25.50;34.41
64064;BME280;50314;50.618;10.642;2023-08-20T08:22:59;97287.53;;;25.54;34.42
64064;BME280;50314;50.618;10.642;2023-08-20T08:25:25;97285.28;;;25.58;34.28
64064;BME280;50314;50.618;10.642;2023-08-20T08:27:51;97285.50;;;25.63;34.47
64064;BME280;50314;50.618;10.642;2023-08-20T08:30:16;97284.28;;;25.65;34.40
64064;BME280;50314;50.618;10.642;2023-08-20T08:32:42;97281.41;;;25.67;34.37
64064;BME280;50314;50.618;10.642;2023-08-20T08:35:07;97272.72;;;25.71;34.34
64064;BME280;50314;50.618;10.642;2023-08-20T08:37:33;97279.59;;;25.74;34.32
64064;BME280;50314;50.618;10.642;2023-08-20T08:39:59;97282.06;;;25.75;34.43
64064;BME280;50314;50.618;10.642;2023-08-20T08:42:24;97283.34;;;25.79;34.62
64064;BME280;50314;50.618;10.642;2023-08-20T08:44:50;97286.50;;;25.83;34.42
64064;BME280;50314;50.618;10.642;2023-08-20T08:47:18;97284.44;;;25.85;34.02
64064;BME280;50314;50.618;10.642;2023-08-20T08:49:45;97281.56;;;25.87;34.56
64064;BME280;50314;50.618;10.642;2023-08-20T08:52:12;97282.00;;;25.90;34.29
64064;BME280;50314;50.618;10.642;2023-08-20T08:54:39;97275.34;;;25.93;34.42
64064;BME280;50314;50.618;10.642;2023-08-20T08:57:05;97272.47;;;25.94;34.09
64064;BME280;50314;50.618;10.642;2023-08-20T08:59:31;97280.16;;;25.97;34.08
64064;BME280;50314;50.618;10.642;2023-08-20T09:01:57;97276.25;;;26.00;34.07
64064;BME280;50314;50.618;10.642;2023-08-20T09:04:23;97284.59;;;26.05;34.38
64064;BME280;50314;50.618;10.642;2023-08-20T09:06:50;97279.19;;;26.05;34.35
64064;BME280;50314;50.618;10.642;2023-08-20T09:09:18;97272.56;;;26.08;34.07
64064;BME280;50314;50.618;10.642;2023-08-20T09:11:44;97273.00;;;26.11;34.16
64064;BME280;50314;50.618;10.642;2023-08-20T09:14:32;97276.75;;;26.10;34.16
64064;BME280;50314;50.618;10.642;2023-08-20T09:17:01;97277.41;;;26.19;33.85
64064;BME280;50314;50.618;10.642;2023-08-20T09:19:35;97270.97;;;26.20;34.09
64064;BME280;50314;50.618;10.642;2023-08-20T09:22:04;97268.13;;;26.28;33.68
64064;BME280;50314;50.618;10.642;2023-08-20T09:24:38;97273.13;;;26.31;33.50
64064;BME280;50314;50.618;10.642;2023-08-20T09:27:04;97270.63;;;26.36;33.65
64064;BME280;50314;50.618;10.642;2023-08-20T09:29:43;97271.69;;;26.35;33.71
64064;BME280;50314;50.618;10.642;2023-08-20T09:32:31;97270.06;;;26.41;33.88
64064;BME280;50314;50.618;10.642;2023-08-20T09:34:57;97279.41;;;26.45;33.53
64064;BME280;50314;50.618;10.642;2023-08-20T09:37:24;97279.00;;;26.48;34.06
64064;BME280;50314;50.618;10.642;2023-08-20T09:39:50;97284.88;;;26.52;33.43
64064;BME280;50314;50.618;10.642;2023-08-20T09:42:16;97282.59;;;26.55;33.51
64064;BME280;50314;50.618;10.642;2023-08-20T09:44:44;97276.78;;;26.58;33.45
64064;BME280;50314;50.618;10.642;2023-08-20T09:47:14;97275.56;;;26.61;33.80
64064;BME280;50314;50.618;10.642;2023-08-20T09:49:45;97276.81;;;26.65;33.42
64064;BME280;50314;50.618;10.642;2023-08-20T09:52:16;97269.16;;;26.68;33.14
64064;BME280;50314;50.618;10.642;2023-08-20T09:55:11;97273.72;;;26.68;33.56
64064;BME280;50314;50.618;10.642;2023-08-20T09:57:39;97270.19;;;26.74;33.18
64064;BME280;50314;50.618;10.642;2023-08-20T10:00:07;97275.00;;;26.79;33.38
64064;BME280;50314;50.618;10.642;2023-08-20T10:02:35;97276.03;;;26.84;32.73
64064;BME280;50314;50.618;10.642;2023-08-20T10:05:02;97280.00;;;26.88;32.73
64064;BME280;50314;50.618;10.642;2023-08-20T10:07:29;97271.50;;;26.91;33.26
64064;BME280;50314;50.618;10.642;2023-08-20T10:10:00;97270.25;;;26.94;32.91
64064;BME280;50314;50.618;10.642;2023-08-20T10:12:27;97270.66;;;26.98;32.72
64064;BME280;50314;50.618;10.642;2023-08-20T10:14:54;97271.13;;;27.01;32.88
64064;BME280;50314;50.618;10.642;2023-08-20T10:17:19;97274.25;;;27.05;32.87
64064;BME280;50314;50.618;10.642;2023-08-20T10:19:47;97263.88;;;27.08;33.09
64064;BME280;50314;50.618;10.642;2023-08-20T10:22:13;97265.94;;;27.13;32.55
64064;BME280;50314;50.618;10.642;2023-08-20T10:24:47;97263.47;;;27.11;32.93
64064;BME280;50314;50.618;10.642;2023-08-20T10:27:26;97264.72;;;27.15;32.30
64064;BME280;50314;50.618;10.642;2023-08-20T10:29:53;97262.84;;;27.23;32.50
64064;BME280;50314;50.618;10.642;2023-08-20T10:32:20;97267.63;;;27.27;32.01
64064;BME280;50314;50.618;10.642;2023-08-20T10:34:52;97264.72;;;27.29;32.05
64064;BME280;50314;50.618;10.642;2023-08-20T10:37:27;97261.16;;;27.35;32.28
64064;BME280;50314;50.618;10.642;2023-08-20T10:39:54;97262.44;;;27.39;32.46
64064;BME280;50314;50.618;10.642;2023-08-20T10:42:23;97263.06;;;27.41;32.19
64064;BME280;50314;50.618;10.642;2023-08-20T10:47:24;97266.59;;;27.48;32.33
64064;BME280;50314;50.618;10.642;2023-08-20T10:49:53;97262.47;;;27.52;31.99
64064;BME280;50314;50.618;10.642;2023-08-20T10:52:23;97267.88;;;27.52;32.36
64064;BME280;50314;50.618;10.642;2023-08-20T10:54:50;97264.78;;;27.55;32.26
64064;BME280;50314;50.618;10.642;2023-08-20T10:57:17;97259.78;;;27.59;32.42
64064;BME280;50314;50.618;10.642;2023-08-20T10:59:56;97255.59;;;27.56;32.25
64064;BME280;50314;50.618;10.642;2023-08-20T11:02:23;97251.84;;;27.64;31.58
64064;BME280;50314;50.618;10.642;2023-08-20T11:04:51;97256.00;;;27.67;31.84
64064;BME280;50314;50.618;10.642;2023-08-20T11:07:17;97252.66;;;27.71;31.63
64064;BME280;50314;50.618;10.642;2023-08-20T11:09:44;97249.75;;;27.73;31.74
64064;BME280;50314;50.618;10.642;2023-08-20T11:12:15;97253.91;;;27.75;31.85
64064;BME280;50314;50.618;10.642;2023-08-20T11:14:40;97248.91;;;27.79;31.90
64064;BME280;50314;50.618;10.642;2023-08-20T11:17:07;97252.66;;;27.78;31.96
64064;BME280;50314;50.618;10.642;2023-08-20T11:19:33;97244.75;;;27.76;31.93
64064;BME280;50314;50.618;10.642;2023-08-20T11:21:59;97251.00;;;27.77;32.07
64064;BME280;50314;50.618;10.642;2023-08-20T11:24:29;97253.06;;;27.75;31.36
64064;BME280;50314;50.618;10.642;2023-08-20T11:26:54;97253.72;;;27.77;31.49
64064;BME280;50314;50.618;10.642;2023-08-20T11:29:25;97249.75;;;27.79;31.56
64064;BME280;50314;50.618;10.642;2023-08-20T11:31:52;97247.47;;;27.83;31.81
64064;BME280;50314;50.618;10.642;2023-08-20T11:34:18;97251.41;;;27.87;31.58
64064;BME280;50314;50.618;10.642;2023-08-20T11:36:47;97250.34;;;27.88;31.57
64064;BME280;50314;50.618;10.642;2023-08-20T11:39:13;97247.22;;;27.91;31.36
64064;BME280;50314;50.618;10.642;2023-08-20T11:41:40;97243.03;;;27.95;31.74
64064;BME280;50314;50.618;10.642;2023-08-20T11:44:08;97241.81;;;27.98;31.58
64064;BME280;50314;50.618;10.642;2023-08-20T11:46:42;97237.47;;;27.97;31.61
64064;BME280;50314;50.618;10.642;2023-08-20T11:49:09;97238.28;;;28.04;31.57
64064;BME280;50314;50.618;10.642;2023-08-20T11:51:41;97240.56;;;28.07;31.67
64064;BME280;50314;50.618;10.642;2023-08-20T11:54:11;97229.72;;;28.07;31.18
64064;BME280;50314;50.618;10.642;2023-08-20T11:56:45;97235.16;;;28.07;31.24
64064;BME280;50314;50.618;10.642;2023-08-20T11:59:12;97237.22;;;28.11;30.93
64064;BME280;50314;50.618;10.642;2023-08-20T12:01:38;97236.16;;;28.13;31.06
64064;BME280;50314;50.618;10.642;2023-08-20T12:04:05;97238.66;;;28.14;31.12
64064;BME280;50314;50.618;10.642;2023-08-20T12:06:31;97241.78;;;28.18;31.00
64064;BME280;50314;50.618;10.642;2023-08-20T12:08:57;97235.94;;;28.21;31.16
64064;BME280;50314;50.618;10.642;2023-08-20T12:11:27;97231.16;;;28.23;31.01
64064;BME280;50314;50.618;10.642;2023-08-20T12:13:53;97230.69;;;28.26;31.03
64064;BME280;50314;50.618;10.642;2023-08-20T12:16:22;97225.91;;;28.28;31.15
64064;BME280;50314;50.618;10.642;2023-08-20T12:18:48;97225.25;;;28.32;31.27
64064;BME280;50314;50.618;10.642;2023-08-20T12:21:14;97219.22;;;28.37;31.11
64064;BME280;50314;50.618;10.642;2023-08-20T12:23:40;97224.19;;;28.40;31.44
64064;BME280;50314;50.618;10.642;2023-08-20T12:26:05;97224.63;;;28.44;30.98
64064;BME280;50314;50.618;10.642;2023-08-20T12:28:31;97216.91;;;28.47;31.08
64064;BME280;50314;50.618;10.642;2023-08-20T12:30:56;97225.44;;;28.51;31.15
64064;BME280;50314;50.618;10.642;2023-08-20T12:33:22;97222.50;;;28.52;30.86
64064;BME280;50314;50.618;10.642;2023-08-20T12:35:48;97217.69;;;28.54;30.98
64064;BME280;50314;50.618;10.642;2023-08-20T12:38:13;97215.63;;;28.56;30.93
64064;BME280;50314;50.618;10.642;2023-08-20T12:40:38;97208.50;;;28.55;30.74
64064;BME280;50314;50.618;10.642;2023-08-20T12:43:04;97214.56;;;28.57;30.89
64064;BME280;50314;50.618;10.642;2023-08-20T12:45:29;97214.13;;;28.61;31.00
64064;BME280;50314;50.618;10.642;2023-08-20T12:47:55;97212.84;;;28.63;30.99
64064;BME280;50314;50.618;10.642;2023-08-20T12:50:20;97205.97;;;28.67;30.79
64064;BME280;50314;50.618;10.642;2023-08-20T12:52:46;97216.38;;;28.70;30.90
64064;BME280;50314;50.618;10.642;2023-08-20T12:55:14;97206.34;;;28.71;30.94
64064;BME280;50314;50.618;10.642;2023-08-20T12:58:00;97205.72;;;28.69;30.84
64064;BME280;50314;50.618;10.642;2023-08-20T13:00:26;97211.94;;;28.76;30.94